METAR Reports

Area Airport Weather Conditions

KBDL - Windsor Locks, Connecticut, USA
Distance from station: NE 45mi, 72km
Updated: 3:51PM EDT, October 01, 2020
Partly cloudy
Partly cloudy
 Wind from SSW
Wind: SSW 12 mph , 19 km/h
Temperature: 72°F , 22°C
Dew Point: 43°F , 6°C
Humidity: 36%
Barometer: 29.86 inHg , 1011.2 hPa
Clouds: Partly cloudy
Visibility: 10 miles , 16 km
Cloud details: Few Clouds 5000 ft
Partly cloudy 11000 ft
Partly cloudy 12000 ft
2020/10/01 19:51 KBDL 011951Z 21010KT 10SM FEW050 SCT110 SCT120 22/06 A2986 RMK AO2 SLP111 T02220056 $
KDXR - Danbury, Connecticut, USA
Distance from station: SSW 15mi, 24km
Updated: 3:53PM EDT, October 01, 2020
Few Clouds
Few Clouds
 Wind from SW
Wind: SW 10 mph , 17 km/h
Temperature: 70°F , 21°C
Dew Point: 46°F , 8°C
Humidity: 43%
Barometer: 29.89 inHg , 1012.2 hPa
Clouds: Few Clouds
Visibility: 10 miles , 16 km
Cloud details: Few Clouds 10000 ft
2020/10/01 19:53 KDXR 011953Z 23009KT 10SM FEW100 21/08 A2989 RMK AO2 SLP120 T02110078
 
KOXC - Oxford/Waterbury, Connecticut, USA
Distance from station: ESE 16mi, 26km
Updated: 3:51PM EDT, October 01, 2020
Mostly cloudy
Mostly cloudy
 Wind from varies
Wind: varies 6 mph , 9 km/h
Temperature: 70°F , 21°C
Dew Point: 50°F , 10°C
Humidity: 50%
Barometer: 29.90 inHg , 1012.5 hPa
Clouds: Mostly cloudy
Visibility: 10 miles , 16 km
Cloud details: Mostly cloudy 11000 ft
2020/10/01 19:51 KOXC 011951Z VRB05KT 10SM BKN110 21/10 A2990 RMK AO2 SLP135 T02060100
KPOU - Poughkeepsie, New York, USA
Distance from station: W 25mi, 40km
Updated: 3:53PM EDT, October 01, 2020
Few Clouds
Few Clouds
 Wind from WSW
Wind: WSW 10 mph , 17 km/h
Temperature: 72°F , 22°C
Dew Point: 45°F , 7°C
Humidity: 38%
Barometer: 29.87 inHg , 1011.5 hPa
Clouds: Few Clouds
Visibility: 10 miles , 16 km
Cloud details: Few Clouds 12000 ft
2020/10/01 19:53 KPOU 011953Z AUTO 25009KT 10SM FEW120 22/07 A2987 RMK AO2 SLP111 T02220072
 
KMMK - Meriden, Connecticut, USA
Distance from station: E 30mi, 48km
Updated: 3:53PM EDT, October 01, 2020
Few Clouds
Few Clouds
 Wind from S
Wind: S 7 mph , 11 km/h
Temperature: 72°F , 22°C
Dew Point: 48°F , 9°C
Humidity: 44%
Barometer: 29.87 inHg , 1011.5 hPa
Clouds: Few Clouds
Visibility: 10 miles , 16 km
Cloud details: Few Clouds 12000 ft
2020/10/01 19:53 KMMK 011953Z AUTO 19006KT 10SM FEW120 22/09 A2987 RMK AO2 SLP113 T02220094 TSNO
KBDR - Bridgeport, Connecticut, USA
Distance from station: SSE 32mi, 51km
Updated: 3:52PM EDT, October 01, 2020
Overcast
Overcast
 Wind from SW
Wind: SW 10 mph , 17 km/h
Temperature: 73°F , 23°C
Dew Point: 52°F , 11°C
Humidity: 47%
Barometer: 29.87 inHg , 1011.5 hPa
Clouds: Overcast
Visibility: 10 miles , 16 km
Cloud details: Overcast 11000 ft
2020/10/01 19:52 KBDR 011952Z 23009KT 10SM OVC110 23/11 A2987 RMK AO2 SLP116 T02280111
 
KHVN - New Haven/Tweed, Connecticut, USA
Distance from station: SE 35mi, 57km
Updated: 3:53PM EDT, October 01, 2020
Overcast
Overcast
 Wind from varies
Wind: varies 6 mph , 9 km/h
Temperature: 73°F , 23°C
Dew Point: 54°F , 12°C
Humidity: 50%
Barometer: 29.88 inHg , 1011.9 hPa
Clouds: Overcast
Visibility: 10 miles , 16 km
Cloud details: Overcast 11000 ft
2020/10/01 19:53 KHVN 011953Z VRB05KT 10SM OVC110 23/12 A2988 RMK AO2 SLP116 T02280122
KSWF - Newburgh/Stewart, New York, USA
Distance from station: W 35mi, 57km
Updated: 3:45PM EDT, October 01, 2020
Partly cloudy
Partly cloudy
 Wind from NW
Wind: NW 9 mph , 15 km/h
Temperature: 70°F , 21°C
Dew Point: 48°F , 9°C
Humidity: 46%
Barometer: 29.89 inHg , 1012.2 hPa
Clouds: Partly cloudy
Visibility: 10 miles , 16 km
Cloud details: Partly cloudy 9000 ft
2020/10/01 19:45 KSWF 011945Z 31008KT 10SM SCT090 21/09 A2989
 
KHPN - White Plains, New York, USA
Distance from station: SSW 38mi, 62km
Updated: 3:56PM EDT, October 01, 2020
Mostly cloudy
Mostly cloudy
 Wind from W
Wind: W 7 mph , 11 km/h
Temperature: 70°F , 21°C
Dew Point: 45°F , 7°C
Humidity: 40%
Barometer: 29.89 inHg , 1012.2 hPa
Clouds: Mostly cloudy
Visibility: 10 miles , 16 km
Cloud details: Mostly cloudy 10000 ft
2020/10/01 19:56 KHPN 011956Z 27006KT 10SM BKN100 21/07 A2989 RMK AO2 SLP119 T02060072
KHFD - Hartford/Brainar, Connecticut, USA
Distance from station: ENE 41mi, 65km
Updated: 3:53PM EDT, October 01, 2020
Mostly cloudy
Mostly cloudy
 Wind from W
Wind: W 12 mph , 19 km/h
Temperature: 73°F , 23°C
Dew Point: 43°F , 6°C
Humidity: 33%
Barometer: 29.86 inHg , 1011.2 hPa
Clouds: Mostly cloudy
Visibility: 10 miles , 16 km
Cloud details: Mostly cloudy 12000 ft
2020/10/01 19:53 KHFD 011953Z 28010KT 10SM BKN120 23/06 A2986 RMK AO2 SLP111 T02330061 $